Ellen Mcallister — WDG3673 — position and weather

sailwx.info

Track history (hours):
 
Tides and Currents Weather Stations Pressure Air Temp Water Temp Dewpoint Dewpoint Depression Visibility Wind Speed Wind Dir Waves Ship Positions

Ellen Mcallister

Owner: McAllister Towing & Transportation Inc., Staten Island, NY. More information available from US FCC via Universal Licensing System and Coast Guard Vessel Documentation Center.

Last reported at 2015-Apr-21 16:33 UTC. Time now 2015-Apr-21 23:22 UTC.
Position N 40°41' W 074°09'.

Length 35 m.

Type: Tug. MMSI: 366836590.

Date/timePositionNaut miles runAvg speedWind from/ knotsBaromVisibWave heightAir tempDewpointWater temp
2015-Apr-21 16:33N 40°41' W 074°09'4 0.5
2015-Apr-21 09:05N 40°40' W 074°04'1 1.3
2015-Apr-21 08:08N 40°40' W 074°05'3 1.4
2015-Apr-21 06:11N 40°40' W 074°09'2 0.2
2015-Apr-20 21:05N 40°38' W 074°10'4 1.5
2015-Apr-20 18:07N 40°39' W 074°04'3 5.6
2015-Apr-20 17:33N 40°40' W 074°00'1 0.9
2015-Apr-20 16:22N 40°41' W 074°01'3 3.6
2015-Apr-20 15:33N 40°42' W 073°58'2 2.3
2015-Apr-20 14:31N 40°41' W 074°01'6 1.1
2015-Apr-20 09:29N 40°40' W 074°08'0 0.0
2015-Apr-19 22:10N 40°40' W 074°08'6 9.2
2015-Apr-19 21:29N 40°36' W 074°03'4 0.2
2015-Apr-18 20:09N 40°39' W 074°06'3 0.7
2015-Apr-18 16:20N 40°39' W 074°09'1 1.9
2015-Apr-18 15:33N 40°40' W 074°08'0 0.0
2015-Apr-18 11:21N 40°40' W 074°08'0 0.3
2015-Apr-18 10:29N 40°40' W 074°08'2 0.6
2015-Apr-18 06:24N 40°38' W 074°10'6 1.7
2015-Apr-18 02:33N 40°41' W 074°02'3 3.2
2015-Apr-18 01:33N 40°43' W 073°58'3 3.3
2015-Apr-18 00:33N 40°41' W 074°02'1 1.2
2015-Apr-17 23:30N 40°40' W 074°03'4 4.6
2015-Apr-17 22:33N 40°42' W 073°58'5 5.0
2015-Apr-17 21:32N 40°40' W 074°04'6 3.0
2015-Apr-17 19:31N 40°38' W 074°12'6 1.3
2015-Apr-17 15:18N 40°40' W 074°05'0 0.0
2015-Apr-17 14:33N 40°40' W 074°05'0 0.3
2015-Apr-17 13:23N 40°40' W 074°05'  
Track history (hours):
 
Tides and Currents Weather Stations Pressure Air Temp Water Temp Dewpoint Dewpoint Depression Visibility Wind Speed Wind Dir Waves Ship Positions

Ellen Mcallister

Owner: McAllister Towing & Transportation Inc., Staten Island, NY. More information available from US FCC via Universal Licensing System and Coast Guard Vessel Documentation Center.

Last reported at 2015-Apr-21 16:33 UTC. Time now 2015-Apr-21 23:22 UTC.
Position N 40°41' W 074°09'.

Length 35 m.

Type: Tug. MMSI: 366836590.

Date/timePositionNaut miles runAvg speedWind from/ knotsBaromVisibWave heightAir tempDewpointWater temp
2015-Apr-21 16:33N 40°41' W 074°09'4 0.5
2015-Apr-21 09:05N 40°40' W 074°04'1 1.3
2015-Apr-21 08:08N 40°40' W 074°05'3 1.4
2015-Apr-21 06:11N 40°40' W 074°09'2 0.2
2015-Apr-20 21:05N 40°38' W 074°10'4 1.5
2015-Apr-20 18:07N 40°39' W 074°04'3 5.6
2015-Apr-20 17:33N 40°40' W 074°00'1 0.9
2015-Apr-20 16:22N 40°41' W 074°01'3 3.6
2015-Apr-20 15:33N 40°42' W 073°58'2 2.3
2015-Apr-20 14:31N 40°41' W 074°01'6 1.1
2015-Apr-20 09:29N 40°40' W 074°08'0 0.0
2015-Apr-19 22:10N 40°40' W 074°08'6 9.2
2015-Apr-19 21:29N 40°36' W 074°03'4 0.2
2015-Apr-18 20:09N 40°39' W 074°06'3 0.7
2015-Apr-18 16:20N 40°39' W 074°09'1 1.9
2015-Apr-18 15:33N 40°40' W 074°08'0 0.0
2015-Apr-18 11:21N 40°40' W 074°08'0 0.3
2015-Apr-18 10:29N 40°40' W 074°08'2 0.6
2015-Apr-18 06:24N 40°38' W 074°10'6 1.7
2015-Apr-18 02:33N 40°41' W 074°02'3 3.2
2015-Apr-18 01:33N 40°43' W 073°58'3 3.3
2015-Apr-18 00:33N 40°41' W 074°02'1 1.2
2015-Apr-17 23:30N 40°40' W 074°03'4 4.6
2015-Apr-17 22:33N 40°42' W 073°58'5 5.0
2015-Apr-17 21:32N 40°40' W 074°04'6 3.0
2015-Apr-17 19:31N 40°38' W 074°12'6 1.3
2015-Apr-17 15:18N 40°40' W 074°05'0 0.0
2015-Apr-17 14:33N 40°40' W 074°05'0 0.3
2015-Apr-17 13:23N 40°40' W 074°05'  

Dump ship's entire track history